Flugplatz Wittmundhafen Airport

Bericht für ETNT

vom 22.03. um 22:20 UTC

Wind 8 kt aus 310°

Sichtweite 300 m

Nebel

Temperatur 7.0°C

Taupunkt 6.0°C

Luftfeuchtigkeit 93%

Luftdruck 1026 hPa

ETNT 222220Z 31008KT 0300 R26/2700U FG VV000 07/06 Q1026 RED

Prognose für ETNT

vom 22.03. um 20:10 UTC

Am 22.03. zwischen 21:00 UTC und 22:00 UTC

Wind 5 kt aus 180°

Sichtweite 10 km oder mehr

keine signifikanten Wettererscheinungen

gering bewölkt in 2500 ft


Am 22.03. zwischen 22:00 und 00:00 UTC übergehend zu

variable Windrichtung mit 2 kt

Sichtweite 500 m

Nebel

aufgebrochene Bewölkung in 100 ft

TAF ETNT 222010Z 2221/2306 18005KT 9999 NSW FEW025 BECMG 2222/2224 VRB02KT 0500 FG BKN001 BY ETGL
Impressum